createdAt,value
2018-12-23T00:00:43.847Z,101483.55
2018-12-23T00:03:12.383Z,101483.44
2018-12-23T00:05:40.753Z,101476.47
2018-12-23T00:08:09.171Z,101480.67
2018-12-23T00:10:37.589Z,101477.83
2018-12-23T00:13:09.343Z,101475.59
2018-12-23T00:15:37.873Z,101480.38
2018-12-23T00:18:06.296Z,101485.34
2018-12-23T00:20:34.688Z,101486.20
2018-12-23T00:23:03.148Z,101480.78
2018-12-23T00:25:31.521Z,101483.19
2018-12-23T00:27:59.891Z,101477.52
2018-12-23T00:30:28.267Z,101488.09
2018-12-23T00:32:56.600Z,101483.81
2018-12-23T00:35:25.030Z,101490.94
2018-12-23T00:37:53.368Z,101495.62
2018-12-23T00:40:21.752Z,101493.33
2018-12-23T00:42:50.144Z,101494.05
2018-12-23T00:45:21.952Z,101494.47
2018-12-23T00:47:50.317Z,101481.22
2018-12-23T00:50:18.667Z,101482.02
2018-12-23T00:52:47.990Z,101482.66
2018-12-23T00:55:16.489Z,101492.03
2018-12-23T00:57:48.105Z,101487.37
2018-12-23T01:00:16.421Z,101490.38
2018-12-23T01:02:44.776Z,101492.02
2018-12-23T01:05:13.213Z,101489.55
2018-12-23T01:07:41.536Z,101484.48
2018-12-23T01:10:09.966Z,101495.91
2018-12-23T01:12:38.296Z,101506.59
2018-12-23T01:15:06.974Z,101513.96
2018-12-23T01:17:35.292Z,101517.89
2018-12-23T01:20:03.741Z,101516.34
2018-12-23T01:22:32.230Z,101525.33
2018-12-23T01:25:00.686Z,101524.66
2018-12-23T01:27:29.011Z,101512.77
2018-12-23T01:29:57.348Z,101502.21
2018-12-23T01:32:25.778Z,101510.58
2018-12-23T01:34:54.115Z,101508.36
2018-12-23T01:37:22.478Z,101516.47
2018-12-23T01:39:51.005Z,101505.27
2018-12-23T01:42:19.403Z,101512.61
2018-12-23T01:44:47.722Z,101518.84
2018-12-23T01:47:16.146Z,101519.84
2018-12-23T01:49:44.534Z,101517.66
2018-12-23T01:52:12.854Z,101517.32
2018-12-23T01:54:41.248Z,101524.31
2018-12-23T01:57:09.599Z,101525.77
2018-12-23T01:59:37.994Z,101535.68
2018-12-23T02:02:06.357Z,101540.64
2018-12-23T02:04:34.701Z,101543.19
2018-12-23T02:07:03.337Z,101538.36
2018-12-23T02:09:31.793Z,101544.36
2018-12-23T02:12:00.256Z,101541.77
2018-12-23T02:14:28.718Z,101540.02
2018-12-23T02:16:57.054Z,101544.41
2018-12-23T02:19:25.367Z,101546.61
2018-12-23T02:21:53.697Z,101545.41
2018-12-23T02:24:22.165Z,101544.53
2018-12-23T02:26:50.847Z,101545.95
2018-12-23T02:29:19.251Z,101546.03
2018-12-23T02:31:47.593Z,101544.61
2018-12-23T02:34:15.907Z,101547.00
2018-12-23T02:36:44.266Z,101552.37
2018-12-23T02:39:12.597Z,101549.87
2018-12-23T02:41:40.955Z,101544.70
2018-12-23T02:44:09.294Z,101556.25
2018-12-23T02:46:37.626Z,101546.24
2018-12-23T02:49:06.079Z,101542.41
2018-12-23T02:51:34.398Z,101554.76
2018-12-23T02:54:02.754Z,101552.00
2018-12-23T02:56:31.079Z,101543.89
2018-12-23T02:58:59.468Z,101548.41
2018-12-23T03:01:27.873Z,101543.77
2018-12-23T03:03:56.199Z,101549.66
2018-12-23T03:06:24.563Z,101547.39
2018-12-23T03:12:10.404Z,101531.80
2018-12-23T03:14:59.612Z,101537.77
2018-12-23T03:17:48.774Z,101538.07
2018-12-23T03:20:37.966Z,101535.81
2018-12-23T03:23:27.148Z,101539.59
2018-12-23T03:26:16.586Z,101541.20
2018-12-23T03:28:59.107Z,101537.31
2018-12-23T03:31:48.286Z,101524.58
2018-12-23T03:34:37.459Z,101511.75
2018-12-23T03:37:26.626Z,101524.83
2018-12-23T03:40:15.833Z,101524.23
2018-12-23T03:43:05.007Z,101517.53
2018-12-23T03:45:54.177Z,101513.66
2018-12-23T03:48:43.717Z,101525.30
2018-12-23T03:51:33.289Z,101521.42
2018-12-23T03:54:22.454Z,101524.32
2018-12-23T03:57:11.654Z,101520.97
2018-12-23T03:59:41.552Z,101525.96
2018-12-23T04:02:30.717Z,101527.25
2018-12-23T04:05:19.886Z,101510.00
2018-12-23T04:08:09.091Z,101510.88
2018-12-23T04:10:58.251Z,101511.74
2018-12-23T04:13:47.431Z,101519.02
2018-12-23T04:16:36.600Z,101521.42
2018-12-23T04:19:25.798Z,101515.51
2018-12-23T04:22:14.970Z,101515.67
2018-12-23T04:25:04.158Z,101514.06
2018-12-23T04:27:53.341Z,101520.14
2018-12-23T04:30:35.748Z,101523.05
2018-12-23T04:33:24.942Z,101519.80
2018-12-23T04:36:14.116Z,101516.45
2018-12-23T04:39:03.675Z,101510.06
2018-12-23T04:41:52.872Z,101514.95
2018-12-23T04:44:42.403Z,101507.11
2018-12-23T04:47:31.586Z,101508.25
2018-12-23T04:50:20.794Z,101507.36
2018-12-23T04:53:10.275Z,101499.86
2018-12-23T04:55:59.661Z,101495.80
2018-12-23T04:58:48.861Z,101489.09
2018-12-23T05:01:38.053Z,101488.98
2018-12-23T05:04:27.276Z,101489.09
2018-12-23T05:07:16.438Z,101486.09
2018-12-23T05:10:05.610Z,101482.31
2018-12-23T05:12:54.794Z,101486.23
2018-12-23T05:15:44.381Z,101476.91
2018-12-23T05:18:33.513Z,101480.89
2018-12-23T05:21:22.684Z,101478.91
2018-12-23T05:24:11.853Z,101473.20
2018-12-23T05:27:01.089Z,101474.66
2018-12-23T05:29:43.114Z,101472.26
2018-12-23T05:32:32.299Z,101472.00
2018-12-23T05:35:21.490Z,101465.19
2018-12-23T05:38:10.944Z,101476.49
2018-12-23T05:41:00.143Z,101475.45
2018-12-23T05:43:49.316Z,101473.08
2018-12-23T05:46:38.718Z,101475.70
2018-12-23T05:49:27.897Z,101471.78
2018-12-23T05:52:17.079Z,101472.09
2018-12-23T05:55:06.253Z,101481.16
2018-12-23T05:57:55.466Z,101478.73
2018-12-23T06:00:44.915Z,101487.16
2018-12-23T06:03:34.086Z,101481.59
2018-12-23T06:06:23.264Z,101481.14
2018-12-23T06:09:12.459Z,101475.23
2018-12-23T06:12:01.613Z,101469.55
2018-12-23T06:14:50.800Z,101467.53
2018-12-23T06:17:39.949Z,101462.35
2018-12-23T06:20:29.220Z,101474.01
2018-12-23T06:23:18.401Z,101470.13
2018-12-23T06:26:07.736Z,101471.03
2018-12-23T06:28:56.960Z,101476.06
2018-12-23T06:31:39.131Z,101476.91
2018-12-23T06:34:28.287Z,101476.78
2018-12-23T06:37:17.459Z,101473.69
2018-12-23T06:40:07.024Z,101478.45
2018-12-23T06:42:56.214Z,101478.19
2018-12-23T06:45:45.439Z,101480.74
2018-12-23T06:48:35.646Z,101473.58
2018-12-23T06:51:25.555Z,101473.52
2018-12-23T06:54:14.759Z,101481.42
2018-12-23T06:57:03.919Z,101466.49
2018-12-23T06:59:33.926Z,101471.41
2018-12-23T07:02:23.197Z,101474.17
2018-12-23T07:05:12.646Z,101468.99
2018-12-23T07:08:01.825Z,101467.70
2018-12-23T07:10:51.222Z,101472.39
2018-12-23T07:13:40.410Z,101468.77
2018-12-23T07:16:29.591Z,101464.67
2018-12-23T07:19:18.763Z,101466.09
2018-12-23T07:22:07.929Z,101460.11
2018-12-23T07:24:57.147Z,101464.65
2018-12-23T07:27:46.265Z,101459.59
2018-12-23T07:30:28.735Z,101465.48
2018-12-23T07:33:17.904Z,101457.41
2018-12-23T07:36:07.072Z,101455.67
2018-12-23T07:38:56.243Z,101457.69
2018-12-23T07:41:45.398Z,101455.86
2018-12-23T07:44:34.576Z,101460.38
2018-12-23T07:47:23.781Z,101458.70
2018-12-23T07:50:12.958Z,101460.63
2018-12-23T07:53:16.906Z,101455.55
2018-12-23T07:55:53.041Z,101462.20
2018-12-23T07:58:42.450Z,101464.52
2018-12-23T08:01:31.637Z,101460.67
2018-12-23T08:04:21.024Z,101462.20
2018-12-23T08:07:10.238Z,101457.16
2018-12-23T08:09:59.679Z,101457.55
2018-12-23T08:12:48.847Z,101460.05
2018-12-23T08:15:38.013Z,101465.75
2018-12-23T08:18:27.490Z,101456.47
2018-12-23T08:21:16.654Z,101456.69
2018-12-23T08:24:05.889Z,101454.16
2018-12-23T08:26:55.026Z,101451.16
2018-12-23T08:29:37.566Z,101442.68
2018-12-23T08:32:26.742Z,101448.69
2018-12-23T08:35:15.981Z,101445.38
2018-12-23T08:38:05.208Z,101446.35
2018-12-23T08:40:54.395Z,101432.51
2018-12-23T08:43:43.661Z,101434.84
2018-12-23T08:46:39.070Z,101442.20
2018-12-23T08:49:24.018Z,101440.08
2018-12-23T08:52:13.277Z,101436.38
2018-12-23T08:55:02.451Z,101434.13
2018-12-23T08:57:51.666Z,101433.86
2018-12-23T09:00:40.836Z,101433.73
2018-12-23T09:03:49.283Z,101434.67
2018-12-23T09:06:51.031Z,101431.38
2018-12-23T09:09:29.785Z,101425.34
2018-12-23T09:12:18.960Z,101428.91
2018-12-23T09:15:08.263Z,101429.59
2018-12-23T09:17:57.432Z,101429.78
2018-12-23T09:20:46.641Z,101426.34
2018-12-23T09:23:36.036Z,101423.56
2018-12-23T09:26:25.307Z,101420.14
2018-12-23T09:29:14.494Z,101417.66
2018-12-23T09:31:56.820Z,101417.86
2018-12-23T09:34:46.177Z,101407.08
2018-12-23T09:37:35.796Z,101403.27
2018-12-23T09:40:25.205Z,101402.98
2018-12-23T09:43:14.970Z,101397.31
2018-12-23T09:46:05.548Z,101403.17
2018-12-23T09:48:54.750Z,101407.75
2018-12-23T09:51:43.916Z,101404.91
2018-12-23T09:54:33.082Z,101402.18
2018-12-23T09:57:22.261Z,101403.34
2018-12-23T10:00:11.436Z,101403.11
2018-12-23T10:03:00.590Z,101398.78
2018-12-23T10:08:45.666Z,101392.34
2018-12-23T10:11:34.850Z,101391.94
2018-12-23T10:14:24.034Z,101386.03
2018-12-23T10:17:13.214Z,101384.89
2018-12-23T10:20:02.395Z,101377.10
2018-12-23T10:22:51.850Z,101365.22
2018-12-23T10:25:41.022Z,101365.51
2018-12-23T10:28:30.231Z,101365.77
2018-12-23T10:31:12.099Z,101357.95
2018-12-23T10:34:01.315Z,101357.08
2018-12-23T10:36:50.465Z,101345.84
2018-12-23T10:39:39.735Z,101346.53
2018-12-23T10:42:28.923Z,101333.02
2018-12-23T10:45:18.372Z,101332.13
2018-12-23T10:47:48.311Z,101324.02
2018-12-23T10:50:37.517Z,101319.00
2018-12-23T10:53:26.676Z,101317.95
2018-12-23T10:56:16.171Z,101311.26
2018-12-23T10:59:05.634Z,101301.47
2018-12-23T11:01:54.855Z,101295.44
2018-12-23T11:08:12.377Z,101287.56
2018-12-23T11:11:01.575Z,101279.31
2018-12-23T11:13:50.786Z,101272.80
2018-12-23T11:16:39.962Z,101276.63
2018-12-23T11:19:29.145Z,101269.58
2018-12-23T11:22:18.324Z,101267.58
2018-12-23T11:25:08.029Z,101257.50
2018-12-23T11:27:57.554Z,101255.09
2018-12-23T11:30:39.569Z,101253.10
2018-12-23T11:33:49.199Z,101249.94
2018-12-23T11:36:38.650Z,101239.56
2018-12-23T11:39:27.838Z,101234.95
2018-12-23T11:42:17.113Z,101236.04
2018-12-23T11:45:06.286Z,101230.06
2018-12-23T11:47:55.749Z,101227.44
2018-12-23T11:51:06.748Z,101220.09
2018-12-23T11:53:56.764Z,101209.34
2018-12-23T11:56:45.916Z,101199.33
2018-12-23T11:59:35.283Z,101189.66
2018-12-23T12:02:24.760Z,101181.10
2018-12-23T12:05:13.958Z,101184.91
2018-12-23T12:08:03.197Z,101189.80
2018-12-23T12:11:04.830Z,101186.95
2018-12-23T12:13:43.333Z,101182.55
2018-12-23T12:16:32.539Z,101183.48
2018-12-23T12:19:21.709Z,101178.74
2018-12-23T12:22:10.887Z,101175.25
2018-12-23T12:25:00.141Z,101161.88
2018-12-23T12:28:09.729Z,101159.33
2018-12-23T12:30:58.899Z,101149.91
2018-12-23T12:33:28.776Z,101145.11
2018-12-23T12:36:00.005Z,101136.70
2018-12-23T12:38:30.039Z,101134.50
2018-12-23T12:40:59.960Z,101132.33
2018-12-23T12:43:29.956Z,101126.27
2018-12-23T12:46:00.708Z,101130.92
2018-12-23T12:48:50.324Z,101123.31
2018-12-23T12:51:39.758Z,101117.56
2018-12-23T12:54:28.963Z,101101.16
2018-12-23T12:57:18.089Z,101096.77
2018-12-23T13:00:07.400Z,101085.50
2018-12-23T13:02:56.572Z,101084.55
2018-12-23T13:05:46.191Z,101081.16
2018-12-23T13:08:35.356Z,101063.17
2018-12-23T13:11:24.551Z,101062.91
2018-12-23T13:14:13.709Z,101052.71
2018-12-23T13:17:02.890Z,101044.45
2018-12-23T13:19:52.073Z,101034.14
2018-12-23T13:22:41.256Z,101023.11
2018-12-23T13:25:30.430Z,101018.69
2018-12-23T13:28:19.601Z,101022.56
2018-12-23T13:31:01.895Z,101011.77
2018-12-23T13:33:51.052Z,101013.51
2018-12-23T13:36:40.240Z,101004.89
2018-12-23T13:39:29.457Z,100999.96
2018-12-23T13:42:57.112Z,100995.63
2018-12-23T13:46:07.084Z,100993.37
2018-12-23T13:49:16.998Z,100991.06
2018-12-23T13:52:44.708Z,100982.40
2018-12-23T13:56:12.408Z,100980.99
2018-12-23T13:59:40.166Z,100966.69
2018-12-23T14:03:07.851Z,100975.94
2018-12-23T14:06:35.696Z,100964.27
2018-12-23T14:10:03.553Z,100955.49
2018-12-23T14:12:52.757Z,100946.00
2018-12-23T14:15:41.938Z,100930.67
2018-12-23T14:18:31.112Z,100927.23
2018-12-23T14:21:20.294Z,100923.70
2018-12-23T14:23:50.251Z,100922.41
2018-12-23T14:26:39.426Z,100916.77
2018-12-23T14:29:28.625Z,100910.47
2018-12-23T14:32:10.965Z,100896.56
2018-12-23T14:35:00.227Z,100898.66
2018-12-23T14:37:49.396Z,100887.97
2018-12-23T14:40:38.587Z,100886.12
2018-12-23T14:43:27.831Z,100893.47
2018-12-23T14:46:17.236Z,100877.41
2018-12-23T14:49:06.745Z,100867.41
2018-12-23T14:51:56.032Z,100852.12
2018-12-23T14:54:45.251Z,100837.02
2018-12-23T14:57:34.466Z,100843.03
2018-12-23T15:00:23.634Z,100833.52
2018-12-23T15:03:12.832Z,100835.11
2018-12-23T15:06:01.985Z,100838.47
2018-12-23T15:08:51.255Z,100833.56
2018-12-23T15:11:40.452Z,100821.86
2018-12-23T15:14:29.609Z,100815.93
2018-12-23T15:17:18.771Z,100810.15
2018-12-23T15:20:08.273Z,100813.23
2018-12-23T15:22:57.449Z,100819.73
2018-12-23T15:25:46.643Z,100811.79
2018-12-23T15:28:36.115Z,100789.06
2018-12-23T15:31:25.284Z,100778.19
2018-12-23T15:34:14.467Z,100768.91
2018-12-23T15:37:22.995Z,100765.17
2018-12-23T15:40:12.161Z,100765.10
2018-12-23T15:43:01.333Z,100769.29
2018-12-23T15:45:50.582Z,100779.52
2018-12-23T15:48:39.784Z,100767.42
2018-12-23T15:51:28.952Z,100760.15
2018-12-23T15:54:18.273Z,100759.91
2018-12-23T15:57:07.523Z,100770.06
2018-12-23T15:59:56.893Z,100757.73
2018-12-23T16:02:46.019Z,100746.00
2018-12-23T16:05:35.220Z,100749.44
2018-12-23T16:08:24.391Z,100743.78
2018-12-23T16:11:13.588Z,100732.34
2018-12-23T16:14:02.777Z,100717.33
2018-12-23T16:16:51.984Z,100701.25
2018-12-23T16:19:41.261Z,100704.56
2018-12-23T16:22:30.482Z,100699.45
2018-12-23T16:25:19.900Z,100689.88
2018-12-23T16:28:09.137Z,100689.40
2018-12-23T16:30:58.327Z,100694.06
2018-12-23T16:33:39.990Z,100688.70
2018-12-23T16:36:29.166Z,100690.59
2018-12-23T16:39:18.389Z,100694.65
2018-12-23T16:42:07.564Z,100695.38
2018-12-23T16:44:56.773Z,100683.30
2018-12-23T16:47:45.917Z,100678.71
2018-12-23T16:50:35.121Z,100666.63
2018-12-23T16:53:24.293Z,100667.77
2018-12-23T16:55:54.289Z,100666.88
2018-12-23T16:58:43.456Z,100653.23
2018-12-23T17:01:32.657Z,100655.34
2018-12-23T17:04:21.825Z,100655.81
2018-12-23T17:07:11.025Z,100652.05
2018-12-23T17:10:07.959Z,100635.52
2018-12-23T17:12:51.141Z,100639.45
2018-12-23T17:15:40.337Z,100646.93
2018-12-23T17:18:29.484Z,100647.34
2018-12-23T17:21:18.768Z,100651.34
2018-12-23T17:24:07.973Z,100644.30
2018-12-23T17:26:57.163Z,100635.38
2018-12-23T17:29:46.373Z,100623.38
2018-12-23T17:32:28.939Z,100620.06
2018-12-23T17:35:18.218Z,100616.91
2018-12-23T17:38:07.407Z,100616.37
2018-12-23T17:40:56.611Z,100620.73
2018-12-23T17:43:45.839Z,100621.89
2018-12-23T17:46:35.023Z,100619.45
2018-12-23T17:49:24.218Z,100614.26
2018-12-23T17:52:13.410Z,100612.25
2018-12-23T17:55:02.834Z,100605.84
2018-12-23T17:57:52.135Z,100604.78
2018-12-23T18:00:41.318Z,100613.27
2018-12-23T18:03:30.524Z,100608.25
2018-12-23T18:06:19.704Z,100608.58
2018-12-23T18:09:08.908Z,100593.13
2018-12-23T18:11:58.078Z,100593.57
2018-12-23T18:14:47.250Z,100592.48
2018-12-23T18:17:36.477Z,100596.13
2018-12-23T18:20:25.663Z,100593.69
2018-12-23T18:23:14.947Z,100588.66
2018-12-23T18:26:04.214Z,100596.36
2018-12-23T18:28:53.378Z,100584.77
2018-12-23T18:31:42.562Z,100587.80
2018-12-23T18:34:24.269Z,100582.34
2018-12-23T18:37:13.547Z,100589.66
2018-12-23T18:40:02.739Z,100589.16
2018-12-23T18:45:46.899Z,100587.02
2018-12-23T18:48:36.072Z,100582.48
2018-12-23T18:51:25.275Z,100579.44
2018-12-23T18:54:14.443Z,100576.15
2018-12-23T18:57:03.630Z,100581.41
2018-12-23T18:59:52.822Z,100581.41
2018-12-23T19:05:57.926Z,100563.03
2018-12-23T19:09:07.832Z,100579.16
2018-12-23T19:12:35.506Z,100585.16
2018-12-23T19:15:45.439Z,100579.18
2018-12-23T19:18:55.386Z,100567.25
2018-12-23T19:22:23.075Z,100566.34
2018-12-23T19:25:51.034Z,100577.45
2018-12-23T19:29:00.983Z,100583.03
2018-12-23T19:32:10.969Z,100571.53
2018-12-23T19:35:19.935Z,100567.59
2018-12-23T19:38:47.673Z,100555.80
2018-12-23T19:41:57.654Z,100563.16
2018-12-23T19:45:07.618Z,100557.36
2018-12-23T19:48:35.328Z,100561.81
2018-12-23T19:52:03.030Z,100567.14
2018-12-23T19:55:30.780Z,100560.63
2018-12-23T19:58:40.710Z,100555.05
2018-12-23T20:01:50.998Z,100568.22
2018-12-23T20:05:18.834Z,100570.03
2018-12-23T20:08:46.525Z,100556.42
2018-12-23T20:11:56.547Z,100552.59
2018-12-23T20:15:06.529Z,100546.13
2018-12-23T20:18:34.226Z,100549.66
2018-12-23T20:21:44.207Z,100553.19
2018-12-23T20:25:11.909Z,100558.86
2018-12-23T20:28:21.834Z,100555.42
2018-12-23T20:31:49.569Z,100549.39
2018-12-23T20:34:53.607Z,100563.29
2018-12-23T20:38:21.567Z,100555.83
2018-12-23T20:41:31.544Z,100554.12
2018-12-23T20:44:41.464Z,100560.25
2018-12-23T20:47:51.385Z,100556.79
2018-12-23T20:51:19.133Z,100565.45
2018-12-23T20:58:37.234Z,100567.69
2018-12-23T21:02:04.979Z,100583.92
2018-12-23T21:09:23.357Z,100586.23
2018-12-23T21:12:33.427Z,100591.89
2018-12-23T21:15:43.397Z,100601.13
2018-12-23T21:18:53.515Z,100598.44
2018-12-23T21:22:03.493Z,100601.83
2018-12-23T21:25:13.581Z,100620.41
2018-12-23T21:28:41.293Z,100620.23
2018-12-23T21:32:08.965Z,100640.86
2018-12-23T21:34:55.834Z,100621.45
2018-12-23T21:38:23.524Z,100632.31
2018-12-23T21:41:51.382Z,100640.46
2018-12-23T21:45:19.089Z,100638.55
2018-12-23T21:48:28.998Z,100633.85
2018-12-23T21:51:39.295Z,100651.27
2018-12-23T21:54:49.269Z,100650.44
2018-12-23T21:57:59.176Z,100657.57
2018-12-23T22:01:26.897Z,100668.75
2018-12-23T22:04:36.923Z,100684.80
2018-12-23T22:07:46.945Z,100725.14
2018-12-23T22:11:14.615Z,100745.66
2018-12-23T22:14:03.838Z,100776.50
2018-12-23T22:16:53.025Z,100801.59
2018-12-23T22:19:42.225Z,100815.98
2018-12-23T22:22:31.379Z,100818.67
2018-12-23T22:25:20.561Z,100821.34
2018-12-23T22:28:09.734Z,100846.30
2018-12-23T22:30:58.942Z,100839.39
2018-12-23T22:33:48.117Z,100851.55
2018-12-23T22:36:30.263Z,100842.29
2018-12-23T22:39:19.408Z,100861.84
2018-12-23T22:42:08.629Z,100855.30
2018-12-23T22:44:57.818Z,100868.41
2018-12-23T22:47:47.050Z,100872.52
2018-12-23T22:50:36.253Z,100879.27
2018-12-23T22:53:25.441Z,100894.67
2018-12-23T22:56:14.605Z,100919.94
2018-12-23T22:59:03.821Z,100931.89
2018-12-23T23:01:53.086Z,100914.83
2018-12-23T23:04:42.358Z,100920.68
2018-12-23T23:07:31.574Z,100939.02
2018-12-23T23:10:20.783Z,100938.97
2018-12-23T23:13:18.279Z,100951.63
2018-12-23T23:16:01.228Z,100961.89
2018-12-23T23:18:50.486Z,100971.23
2018-12-23T23:21:39.655Z,100959.41
2018-12-23T23:24:28.833Z,101003.44
2018-12-23T23:27:18.018Z,101008.58
2018-12-23T23:30:07.186Z,100993.38
2018-12-23T23:32:56.487Z,101015.20
2018-12-23T23:35:38.194Z,101015.38
2018-12-23T23:38:27.468Z,101026.86
2018-12-23T23:41:16.798Z,101022.48
2018-12-23T23:44:06.022Z,101034.52
2018-12-23T23:46:55.206Z,101048.55
2018-12-23T23:49:44.351Z,101046.59
2018-12-23T23:52:33.558Z,101056.53
2018-12-23T23:55:22.708Z,101051.44
2018-12-23T23:58:11.905Z,101053.78
